Flight Track Log - Related Links

Times and Time Zones

All times are in EDT time to prevent confusion due to time zone crossing. See the TRS30 flight status page for this flight to view local times or setup timezone preferences in your user account.

Time Position Orientation Groundspeed Altitude Reporting Facility
EDT Latitude Longitude Course Direction KTS MPH feet Rate Location/Type
Sun 06:22:57 PM 39.9117 -84.2200 77° East 170 196 1,600  Level Indianapolis Center
Sun 06:24:04 PM 39.9244 -84.1472 79° East 192 221 3,800 1,453 Climbing Indianapolis Center
Sun 06:25:05 PM 39.9372 -84.0606 79° East 225 259 4,700 1,488 Climbing Indianapolis Center
Sun 06:26:05 PM 39.9522 -83.9606 78° East 253 291 6,800 2,300 Climbing Indianapolis Center
Sun 06:27:05 PM 39.9694 -83.8522 79° East 288 331 9,300 2,050 Climbing Indianapolis Center
Sun 06:28:05 PM 39.9861 -83.7386 79° East 304 350 10,900 1,500 Climbing Indianapolis Center
Sun 06:29:05 PM 40.0050 -83.6111 81° East 344 396 12,300 1,400 Climbing Indianapolis Center
Sun 06:30:05 PM 40.0197 -83.4867 78° East 370 426 13,700 1,700 Climbing Indianapolis Center
Sun 06:31:05 PM 40.0444 -83.3400 79° East 398 458 15,700 1,900 Climbing Indianapolis Center
Sun 06:32:05 PM 40.0669 -83.1881 79° East 420 483 17,500 1,800 Climbing Indianapolis Center
Sun 06:33:05 PM 40.0894 -83.0333 79° East 432 497 19,300 1,750 Climbing Indianapolis Center
Sun 06:34:05 PM 40.1136 -82.8622 79° East 432 497 21,000 850 Climbing Indianapolis Center
Sun 06:35:05 PM 40.1356 -82.7100 84° East 432 497 21,000 347 Level Indianapolis Center
Sun 06:36:06 PM 40.1489 -82.5494 95° East 432 497 21,700 1,150 Climbing Indianapolis Center
Sun 06:37:05 PM 40.1369 -82.3867 96° East 440 506 23,300 1,513 Climbing Indianapolis Center
Sun 06:38:05 PM 40.1247 -82.2242 95° East 445 512 24,700 1,240 Climbing Indianapolis Center
Sun 06:39:06 PM 40.1144 -82.0558 96° East 461 531 25,800 1,234 Climbing Indianapolis Center
Sun 06:41:00 PM 40.0886 -81.7175 95° East 497 572 28,300 1,276 Climbing Cleveland Center
Sun 06:42:00 PM 40.0756 -81.5408 95° East 497 572 29,500 1,150 Climbing Cleveland Center
Sun 06:43:00 PM 40.0625 -81.3617 96° East 497 572 30,600 750 Climbing Cleveland Center
Sun 06:44:00 PM 40.0489 -81.1853 97° East 497 572 31,000 200 Climbing Cleveland Center
Sun 06:45:00 PM 40.0331 -81.0061 102° East 497 572 31,000  Level Cleveland Center
Sun 06:46:00 PM 40.0044 -80.8297 104° East 503 579 31,000  Level Cleveland Center
Sun 06:47:00 PM 39.9714 -80.6536 103° East 498 573 31,000  Level Cleveland Center
Sun 06:48:00 PM 39.9419 -80.4911 104° East 504 580 31,000 -500 Level Cleveland Center
Sun 06:49:00 PM 39.9083 -80.3153 105° East 499 574 30,000 -1,300 Descending Cleveland Center
Sun 06:50:00 PM 39.8725 -80.1367 104° East 499 574 28,400 -1,700 Descending Cleveland Center
Sun 06:51:00 PM 39.8403 -79.9639 104° East 499 574 26,600 -1,650 Descending Cleveland Center
Sun 06:52:00 PM 39.8081 -79.7994 105° East 483 556 25,100 -800 Descending Cleveland Center
Sun 06:53:00 PM 39.7733 -79.6322 105° East 473 544 25,000 -50 Descending Cleveland Center
Sun 06:54:00 PM 39.7386 -79.4681 104° East 468 539 25,000  Level Cleveland Center
Sun 06:54:38 PM 39.7156 -79.3519 104° East 469 540 25,000  Level Washington Center
Sun 06:55:38 PM 39.6867 -79.2022 105° East 475 547 25,000  Level Washington Center
Sun 06:56:39 PM 39.6519 -79.0361 109° East 475 547 25,000  Level Washington Center
Sun 06:57:38 PM 39.6086 -78.8722 105° East 481 554 25,000  Level Washington Center
Sun 06:58:38 PM 39.5756 -78.7092 106° East 481 554 25,000 -800 Level Washington Center
Sun 06:59:38 PM 39.5397 -78.5517 106° East 470 541 23,400 -2,826 Descending Washington Center
Sun 07:00:39 PM 39.5042 -78.3889 106° East 465 535 19,300 -3,197 Descending Washington Center
Sun 07:01:40 PM 39.4683 -78.2261 99° East 465 535 16,900 -2,132 Descending Washington Center
Sun 07:02:40 PM 39.4506 -78.0778 91° East 445 512 15,000 -1,091 Descending Washington Center
Sun 07:03:41 PM 39.4494 -77.9297 91° East 422 486 14,700 -1,169 Descending Washington Center
Sun 07:04:38 PM 39.4478 -77.7847 91° East 411 473 12,700 -1,897 Descending Washington Center
Sun 07:05:38 PM 39.4461 -77.6475 91° East 398 458 11,000 -843 Descending Washington Center
Sun 07:06:39 PM 39.4442 -77.5158 89° East 380 437 11,000  Level Washington Center
Sun 07:07:39 PM 39.4461 -77.3814 82° East 375 432 11,000  Level Washington Center
Sun 07:08:40 PM 39.4606 -77.2528 87° East 363 418 11,000 -536 Level Washington Center
Sun 07:09:31 PM 39.4667 -77.1167 75° East 332 382 10,000 -1,371 Descending Potomac TRACON
Sun 07:10:25 PM 39.4833 -77.0333 90° East 320 368 8,600 -1,537 Descending Potomac TRACON
Sun 07:11:32 PM 39.4833 -76.9000 102° East 303 349 6,900 -1,559 Descending Potomac TRACON
Sun 07:12:32 PM 39.4667 -76.8000 102° East 296 341 5,300 -942 Descending Potomac TRACON
Sun 07:13:33 PM 39.4500 -76.7000 102° East 287 330 5,000 -149 Descending Potomac TRACON
Sun 07:14:33 PM 39.4333 -76.6000 142° Southeast 292 336 5,000 -347 Level Potomac TRACON
Sun 07:15:34 PM 39.3667 -76.5333 150° Southeast 288 331 4,300 -496 Descending Potomac TRACON
Sun 07:16:34 PM 39.3000 -76.4833 169° South 276 318 4,000 -470 Descending Potomac TRACON
Sun 07:17:29 PM 39.2333 -76.4667 205° Southwest 276 318 3,400 -231 Descending Potomac TRACON
Sun 07:22:37 PM 39.0667 -76.5667 311° West 168 193 2,600 -293 Descending Potomac TRACON
Sun 07:23:37 PM 39.1000 -76.6167 339° North 168 193 1,600 -887 Descending Potomac TRACON
Sun 07:24:32 PM 39.1333 -76.6333 339° North 138 159 900 -764 Descending Potomac TRACON

Login

Don't have an account? Register now (free) for customized features, flight alerts, and more!